sensor_id;sensor_type;location;lat;lon;timestamp;P1;durP1;ratioP1;P2;durP2;ratioP2
73456;SDS011;61691;53.072;6.582;2023-06-26T00:00:30;15.52;;;5.47;;
73456;SDS011;61691;53.072;6.582;2023-06-26T00:02:59;15.52;;;5.38;;
73456;SDS011;61691;53.072;6.582;2023-06-26T00:05:25;17.33;;;5.70;;
73456;SDS011;61691;53.072;6.582;2023-06-26T00:07:54;16.55;;;5.32;;
73456;SDS011;61691;53.072;6.582;2023-06-26T00:10:21;16.40;;;5.90;;
73456;SDS011;61691;53.072;6.582;2023-06-26T00:12:47;16.40;;;5.70;;
73456;SDS011;61691;53.072;6.582;2023-06-26T00:15:14;17.50;;;6.00;;
73456;SDS011;61691;53.072;6.582;2023-06-26T00:17:41;15.70;;;5.45;;
73456;SDS011;61691;53.072;6.582;2023-06-26T00:20:08;17.10;;;5.68;;
73456;SDS011;61691;53.072;6.582;2023-06-26T00:22:35;17.75;;;6.22;;
73456;SDS011;61691;53.072;6.582;2023-06-26T00:25:02;17.23;;;6.13;;
73456;SDS011;61691;53.072;6.582;2023-06-26T00:27:29;15.05;;;5.38;;
73456;SDS011;61691;53.072;6.582;2023-06-26T00:29:56;17.65;;;6.35;;
73456;SDS011;61691;53.072;6.582;2023-06-26T00:32:22;17.27;;;6.05;;
73456;SDS011;61691;53.072;6.582;2023-06-26T00:34:49;16.50;;;6.28;;
73456;SDS011;61691;53.072;6.582;2023-06-26T00:37:16;16.73;;;5.80;;
73456;SDS011;61691;53.072;6.582;2023-06-26T00:39:43;16.63;;;5.90;;
73456;SDS011;61691;53.072;6.582;2023-06-26T00:42:09;16.60;;;6.15;;
73456;SDS011;61691;53.072;6.582;2023-06-26T00:44:36;16.08;;;5.68;;
73456;SDS011;61691;53.072;6.582;2023-06-26T00:47:03;17.63;;;6.53;;
73456;SDS011;61691;53.072;6.582;2023-06-26T00:49:30;17.80;;;6.63;;
73456;SDS011;61691;53.072;6.582;2023-06-26T00:51:56;16.73;;;5.78;;
73456;SDS011;61691;53.072;6.582;2023-06-26T00:54:23;19.70;;;6.25;;
73456;SDS011;61691;53.072;6.582;2023-06-26T00:56:50;16.67;;;6.47;;
73456;SDS011;61691;53.072;6.582;2023-06-26T00:59:17;19.20;;;6.28;;
73456;SDS011;61691;53.072;6.582;2023-06-26T01:01:43;15.88;;;5.90;;
73456;SDS011;61691;53.072;6.582;2023-06-26T01:04:10;16.20;;;6.32;;
73456;SDS011;61691;53.072;6.582;2023-06-26T01:06:47;16.33;;;6.32;;
73456;SDS011;61691;53.072;6.582;2023-06-26T01:09:18;17.55;;;6.25;;
73456;SDS011;61691;53.072;6.582;2023-06-26T01:11:46;16.85;;;6.43;;
73456;SDS011;61691;53.072;6.582;2023-06-26T01:14:13;17.17;;;6.20;;
73456;SDS011;61691;53.072;6.582;2023-06-26T01:16:40;18.13;;;6.32;;
73456;SDS011;61691;53.072;6.582;2023-06-26T01:19:13;17.63;;;6.07;;
73456;SDS011;61691;53.072;6.582;2023-06-26T01:22:17;28.85;;;7.57;;
73456;SDS011;61691;53.072;6.582;2023-06-26T01:27:48;17.00;;;6.43;;
73456;SDS011;61691;53.072;6.582;2023-06-26T01:30:16;16.05;;;6.35;;
73456;SDS011;61691;53.072;6.582;2023-06-26T01:32:45;16.55;;;6.00;;
73456;SDS011;61691;53.072;6.582;2023-06-26T01:35:13;16.85;;;6.40;;
73456;SDS011;61691;53.072;6.582;2023-06-26T01:37:41;16.42;;;6.20;;
73456;SDS011;61691;53.072;6.582;2023-06-26T01:40:08;16.90;;;6.80;;
73456;SDS011;61691;53.072;6.582;2023-06-26T01:42:36;17.23;;;6.57;;
73456;SDS011;61691;53.072;6.582;2023-06-26T01:45:17;16.73;;;6.32;;
73456;SDS011;61691;53.072;6.582;2023-06-26T01:47:53;19.48;;;6.68;;
73456;SDS011;61691;53.072;6.582;2023-06-26T01:50:24;17.52;;;6.40;;
73456;SDS011;61691;53.072;6.582;2023-06-26T01:53:01;15.95;;;6.35;;
73456;SDS011;61691;53.072;6.582;2023-06-26T01:55:47;16.73;;;6.57;;
73456;SDS011;61691;53.072;6.582;2023-06-26T01:58:17;17.02;;;6.63;;
73456;SDS011;61691;53.072;6.582;2023-06-26T02:00:48;16.95;;;6.63;;
73456;SDS011;61691;53.072;6.582;2023-06-26T02:03:15;17.33;;;6.57;;
73456;SDS011;61691;53.072;6.582;2023-06-26T02:05:42;16.23;;;6.07;;
73456;SDS011;61691;53.072;6.582;2023-06-26T02:08:08;18.58;;;7.38;;
73456;SDS011;61691;53.072;6.582;2023-06-26T02:10:35;16.80;;;6.90;;
73456;SDS011;61691;53.072;6.582;2023-06-26T02:13:03;16.38;;;6.38;;
73456;SDS011;61691;53.072;6.582;2023-06-26T02:15:29;17.23;;;6.55;;
73456;SDS011;61691;53.072;6.582;2023-06-26T02:17:56;16.67;;;6.75;;
73456;SDS011;61691;53.072;6.582;2023-06-26T02:20:23;17.30;;;6.93;;
73456;SDS011;61691;53.072;6.582;2023-06-26T02:22:49;17.20;;;6.38;;
73456;SDS011;61691;53.072;6.582;2023-06-26T02:25:17;17.75;;;7.05;;
73456;SDS011;61691;53.072;6.582;2023-06-26T02:27:44;16.90;;;6.43;;
73456;SDS011;61691;53.072;6.582;2023-06-26T02:30:11;18.60;;;7.15;;
73456;SDS011;61691;53.072;6.582;2023-06-26T02:32:38;16.85;;;6.97;;
73456;SDS011;61691;53.072;6.582;2023-06-26T02:35:05;17.55;;;7.13;;
73456;SDS011;61691;53.072;6.582;2023-06-26T02:37:32;17.80;;;7.32;;
73456;SDS011;61691;53.072;6.582;2023-06-26T02:39:59;17.25;;;7.18;;
73456;SDS011;61691;53.072;6.582;2023-06-26T02:42:26;18.02;;;7.22;;
73456;SDS011;61691;53.072;6.582;2023-06-26T02:44:52;17.75;;;7.00;;
73456;SDS011;61691;53.072;6.582;2023-06-26T02:47:19;17.85;;;7.55;;
73456;SDS011;61691;53.072;6.582;2023-06-26T02:49:46;17.35;;;7.35;;
73456;SDS011;61691;53.072;6.582;2023-06-26T02:52:12;18.05;;;7.55;;
73456;SDS011;61691;53.072;6.582;2023-06-26T02:54:39;17.73;;;7.47;;
73456;SDS011;61691;53.072;6.582;2023-06-26T02:57:06;17.02;;;7.22;;
73456;SDS011;61691;53.072;6.582;2023-06-26T02:59:32;18.23;;;7.00;;
73456;SDS011;61691;53.072;6.582;2023-06-26T03:02:01;17.90;;;7.75;;
73456;SDS011;61691;53.072;6.582;2023-06-26T03:04:27;17.50;;;7.45;;
73456;SDS011;61691;53.072;6.582;2023-06-26T03:06:54;17.35;;;7.80;;
73456;SDS011;61691;53.072;6.582;2023-06-26T03:09:21;17.02;;;7.53;;
73456;SDS011;61691;53.072;6.582;2023-06-26T03:11:48;17.08;;;7.15;;
73456;SDS011;61691;53.072;6.582;2023-06-26T03:14:15;19.85;;;7.53;;
73456;SDS011;61691;53.072;6.582;2023-06-26T03:16:42;18.85;;;8.18;;
73456;SDS011;61691;53.072;6.582;2023-06-26T03:19:08;18.00;;;8.10;;
73456;SDS011;61691;53.072;6.582;2023-06-26T03:21:35;17.80;;;7.88;;
73456;SDS011;61691;53.072;6.582;2023-06-26T03:24:02;18.55;;;7.85;;
73456;SDS011;61691;53.072;6.582;2023-06-26T03:26:28;17.83;;;7.55;;
73456;SDS011;61691;53.072;6.582;2023-06-26T03:28:55;17.70;;;8.27;;
73456;SDS011;61691;53.072;6.582;2023-06-26T03:31:22;18.77;;;8.18;;
73456;SDS011;61691;53.072;6.582;2023-06-26T03:33:49;19.02;;;7.80;;
73456;SDS011;61691;53.072;6.582;2023-06-26T03:36:15;19.35;;;8.30;;
73456;SDS011;61691;53.072;6.582;2023-06-26T03:38:42;18.42;;;8.70;;
73456;SDS011;61691;53.072;6.582;2023-06-26T03:41:09;19.30;;;8.45;;
73456;SDS011;61691;53.072;6.582;2023-06-26T03:43:35;17.88;;;8.00;;
73456;SDS011;61691;53.072;6.582;2023-06-26T03:46:02;18.45;;;8.05;;
73456;SDS011;61691;53.072;6.582;2023-06-26T03:48:29;18.40;;;8.13;;
73456;SDS011;61691;53.072;6.582;2023-06-26T03:50:56;20.13;;;7.95;;
73456;SDS011;61691;53.072;6.582;2023-06-26T03:53:22;19.08;;;7.90;;
73456;SDS011;61691;53.072;6.582;2023-06-26T03:55:50;17.75;;;7.82;;
73456;SDS011;61691;53.072;6.582;2023-06-26T03:58:16;18.45;;;8.07;;
73456;SDS011;61691;53.072;6.582;2023-06-26T04:00:44;18.38;;;7.88;;
73456;SDS011;61691;53.072;6.582;2023-06-26T04:03:10;20.42;;;8.27;;
73456;SDS011;61691;53.072;6.582;2023-06-26T04:05:37;20.48;;;8.13;;
73456;SDS011;61691;53.072;6.582;2023-06-26T04:08:04;18.10;;;7.18;;
73456;SDS011;61691;53.072;6.582;2023-06-26T04:10:31;17.45;;;7.57;;
73456;SDS011;61691;53.072;6.582;2023-06-26T04:12:58;18.45;;;7.22;;
73456;SDS011;61691;53.072;6.582;2023-06-26T04:15:24;19.65;;;7.95;;
73456;SDS011;61691;53.072;6.582;2023-06-26T04:17:51;18.42;;;6.95;;
73456;SDS011;61691;53.072;6.582;2023-06-26T04:20:18;18.17;;;7.47;;
73456;SDS011;61691;53.072;6.582;2023-06-26T04:22:44;18.20;;;6.88;;
73456;SDS011;61691;53.072;6.582;2023-06-26T04:25:11;18.17;;;7.43;;
73456;SDS011;61691;53.072;6.582;2023-06-26T04:27:38;18.92;;;6.95;;
73456;SDS011;61691;53.072;6.582;2023-06-26T04:30:07;17.05;;;6.80;;
73456;SDS011;61691;53.072;6.582;2023-06-26T04:32:34;20.38;;;7.50;;
73456;SDS011;61691;53.072;6.582;2023-06-26T04:35:01;20.13;;;7.22;;
73456;SDS011;61691;53.072;6.582;2023-06-26T04:37:29;18.65;;;6.93;;
73456;SDS011;61691;53.072;6.582;2023-06-26T04:39:56;17.98;;;6.47;;
73456;SDS011;61691;53.072;6.582;2023-06-26T04:42:23;19.55;;;6.68;;
73456;SDS011;61691;53.072;6.582;2023-06-26T04:44:49;16.48;;;5.93;;
73456;SDS011;61691;53.072;6.582;2023-06-26T04:47:16;17.38;;;6.22;;
73456;SDS011;61691;53.072;6.582;2023-06-26T04:49:43;19.02;;;6.22;;
73456;SDS011;61691;53.072;6.582;2023-06-26T04:52:12;18.10;;;6.72;;
73456;SDS011;61691;53.072;6.582;2023-06-26T04:54:39;17.80;;;6.30;;
73456;SDS011;61691;53.072;6.582;2023-06-26T04:57:06;19.90;;;6.53;;
73456;SDS011;61691;53.072;6.582;2023-06-26T04:59:35;21.02;;;6.43;;
73456;SDS011;61691;53.072;6.582;2023-06-26T05:02:01;16.10;;;5.80;;
73456;SDS011;61691;53.072;6.582;2023-06-26T05:04:29;19.40;;;6.28;;
73456;SDS011;61691;53.072;6.582;2023-06-26T05:06:56;19.65;;;6.20;;
73456;SDS011;61691;53.072;6.582;2023-06-26T05:09:23;18.70;;;6.28;;
73456;SDS011;61691;53.072;6.582;2023-06-26T05:11:49;19.83;;;6.47;;
73456;SDS011;61691;53.072;6.582;2023-06-26T05:14:17;20.75;;;6.50;;
73456;SDS011;61691;53.072;6.582;2023-06-26T05:16:44;21.48;;;7.60;;
73456;SDS011;61691;53.072;6.582;2023-06-26T05:19:11;19.52;;;6.47;;
73456;SDS011;61691;53.072;6.582;2023-06-26T05:21:37;18.50;;;6.55;;
73456;SDS011;61691;53.072;6.582;2023-06-26T05:24:04;19.48;;;6.53;;
73456;SDS011;61691;53.072;6.582;2023-06-26T05:26:32;20.00;;;7.45;;
73456;SDS011;61691;53.072;6.582;2023-06-26T05:28:58;21.23;;;6.75;;
73456;SDS011;61691;53.072;6.582;2023-06-26T05:31:25;20.23;;;6.85;;
73456;SDS011;61691;53.072;6.582;2023-06-26T05:33:53;20.90;;;7.30;;
73456;SDS011;61691;53.072;6.582;2023-06-26T05:36:22;21.33;;;7.15;;
73456;SDS011;61691;53.072;6.582;2023-06-26T05:38:50;21.45;;;7.75;;
73456;SDS011;61691;53.072;6.582;2023-06-26T05:41:17;21.58;;;7.45;;
73456;SDS011;61691;53.072;6.582;2023-06-26T05:43:44;19.17;;;6.60;;
73456;SDS011;61691;53.072;6.582;2023-06-26T05:46:11;26.35;;;8.30;;
73456;SDS011;61691;53.072;6.582;2023-06-26T05:48:38;22.25;;;7.78;;
73456;SDS011;61691;53.072;6.582;2023-06-26T05:51:06;19.05;;;6.50;;
73456;SDS011;61691;53.072;6.582;2023-06-26T05:53:33;22.33;;;7.13;;
73456;SDS011;61691;53.072;6.582;2023-06-26T05:56:00;19.33;;;7.00;;
73456;SDS011;61691;53.072;6.582;2023-06-26T05:58:27;20.83;;;6.28;;
73456;SDS011;61691;53.072;6.582;2023-06-26T06:00:54;21.25;;;5.80;;
73456;SDS011;61691;53.072;6.582;2023-06-26T06:03:21;19.95;;;5.22;;
73456;SDS011;61691;53.072;6.582;2023-06-26T06:05:48;18.95;;;4.85;;
73456;SDS011;61691;53.072;6.582;2023-06-26T06:08:15;17.83;;;4.53;;
73456;SDS011;61691;53.072;6.582;2023-06-26T06:10:42;22.00;;;5.38;;
73456;SDS011;61691;53.072;6.582;2023-06-26T06:13:08;19.63;;;4.78;;
73456;SDS011;61691;53.072;6.582;2023-06-26T06:15:35;18.50;;;4.57;;
73456;SDS011;61691;53.072;6.582;2023-06-26T06:18:02;18.75;;;4.40;;
73456;SDS011;61691;53.072;6.582;2023-06-26T06:20:29;19.98;;;4.47;;
73456;SDS011;61691;53.072;6.582;2023-06-26T06:22:56;18.42;;;3.80;;
73456;SDS011;61691;53.072;6.582;2023-06-26T06:25:23;19.05;;;3.90;;
73456;SDS011;61691;53.072;6.582;2023-06-26T06:27:49;17.90;;;4.15;;
73456;SDS011;61691;53.072;6.582;2023-06-26T06:30:16;18.65;;;3.92;;
73456;SDS011;61691;53.072;6.582;2023-06-26T06:32:51;16.42;;;3.70;;
73456;SDS011;61691;53.072;6.582;2023-06-26T06:35:19;15.13;;;3.40;;
73456;SDS011;61691;53.072;6.582;2023-06-26T06:37:48;14.77;;;3.30;;
73456;SDS011;61691;53.072;6.582;2023-06-26T06:40:15;17.35;;;3.45;;
73456;SDS011;61691;53.072;6.582;2023-06-26T06:42:42;17.73;;;3.80;;
73456;SDS011;61691;53.072;6.582;2023-06-26T06:45:09;15.55;;;3.58;;
73456;SDS011;61691;53.072;6.582;2023-06-26T06:47:36;18.10;;;3.38;;
73456;SDS011;61691;53.072;6.582;2023-06-26T06:50:03;16.83;;;3.53;;
73456;SDS011;61691;53.072;6.582;2023-06-26T06:52:35;15.43;;;3.45;;
73456;SDS011;61691;53.072;6.582;2023-06-26T06:55:07;17.27;;;3.03;;
73456;SDS011;61691;53.072;6.582;2023-06-26T06:57:37;16.48;;;2.90;;
73456;SDS011;61691;53.072;6.582;2023-06-26T07:00:06;13.85;;;2.92;;
73456;SDS011;61691;53.072;6.582;2023-06-26T07:02:40;15.23;;;3.03;;
73456;SDS011;61691;53.072;6.582;2023-06-26T07:05:08;16.00;;;3.10;;
73456;SDS011;61691;53.072;6.582;2023-06-26T07:07:36;15.43;;;2.90;;
73456;SDS011;61691;53.072;6.582;2023-06-26T07:10:05;14.00;;;2.72;;
73456;SDS011;61691;53.072;6.582;2023-06-26T07:12:34;15.35;;;2.92;;
73456;SDS011;61691;53.072;6.582;2023-06-26T07:15:01;15.50;;;2.80;;
73456;SDS011;61691;53.072;6.582;2023-06-26T07:17:31;15.57;;;2.83;;
73456;SDS011;61691;53.072;6.582;2023-06-26T07:19:59;14.75;;;2.55;;
73456;SDS011;61691;53.072;6.582;2023-06-26T07:22:26;12.73;;;2.20;;
73456;SDS011;61691;53.072;6.582;2023-06-26T07:24:53;12.07;;;2.83;;
73456;SDS011;61691;53.072;6.582;2023-06-26T07:27:20;15.55;;;2.72;;
73456;SDS011;61691;53.072;6.582;2023-06-26T07:29:46;11.95;;;2.38;;
73456;SDS011;61691;53.072;6.582;2023-06-26T07:32:13;12.75;;;2.35;;
73456;SDS011;61691;53.072;6.582;2023-06-26T07:34:41;11.68;;;2.17;;
73456;SDS011;61691;53.072;6.582;2023-06-26T07:37:08;12.07;;;2.17;;
73456;SDS011;61691;53.072;6.582;2023-06-26T07:39:34;14.70;;;2.75;;
73456;SDS011;61691;53.072;6.582;2023-06-26T07:42:01;16.05;;;2.63;;
73456;SDS011;61691;53.072;6.582;2023-06-26T07:44:28;14.40;;;2.72;;
73456;SDS011;61691;53.072;6.582;2023-06-26T07:46:55;13.82;;;2.70;;
73456;SDS011;61691;53.072;6.582;2023-06-26T07:49:22;13.85;;;2.60;;
73456;SDS011;61691;53.072;6.582;2023-06-26T07:51:48;12.48;;;2.30;;
73456;SDS011;61691;53.072;6.582;2023-06-26T07:54:15;13.55;;;2.58;;
73456;SDS011;61691;53.072;6.582;2023-06-26T07:56:52;14.10;;;2.30;;
73456;SDS011;61691;53.072;6.582;2023-06-26T07:59:22;16.23;;;3.17;;
73456;SDS011;61691;53.072;6.582;2023-06-26T08:01:50;13.15;;;2.47;;
73456;SDS011;61691;53.072;6.582;2023-06-26T08:04:18;13.98;;;2.30;;
73456;SDS011;61691;53.072;6.582;2023-06-26T08:06:49;14.30;;;2.78;;
73456;SDS011;61691;53.072;6.582;2023-06-26T08:09:18;14.90;;;2.40;;
73456;SDS011;61691;53.072;6.582;2023-06-26T08:11:45;14.25;;;2.25;;
73456;SDS011;61691;53.072;6.582;2023-06-26T08:14:12;12.95;;;2.00;;
73456;SDS011;61691;53.072;6.582;2023-06-26T08:16:40;12.27;;;2.03;;
73456;SDS011;61691;53.072;6.582;2023-06-26T08:19:08;13.82;;;2.17;;
73456;SDS011;61691;53.072;6.582;2023-06-26T08:21:35;11.85;;;1.90;;
73456;SDS011;61691;53.072;6.582;2023-06-26T08:24:02;11.80;;;2.42;;
73456;SDS011;61691;53.072;6.582;2023-06-26T08:26:29;13.65;;;2.17;;
73456;SDS011;61691;53.072;6.582;2023-06-26T08:28:55;9.23;;;1.88;;
73456;SDS011;61691;53.072;6.582;2023-06-26T08:31:22;12.43;;;2.10;;
73456;SDS011;61691;53.072;6.582;2023-06-26T08:33:49;11.25;;;2.00;;
73456;SDS011;61691;53.072;6.582;2023-06-26T08:36:16;14.02;;;2.85;;
73456;SDS011;61691;53.072;6.582;2023-06-26T08:38:42;14.27;;;2.13;;
73456;SDS011;61691;53.072;6.582;2023-06-26T08:41:09;14.07;;;2.47;;
73456;SDS011;61691;53.072;6.582;2023-06-26T08:43:36;10.45;;;2.10;;
73456;SDS011;61691;53.072;6.582;2023-06-26T08:46:03;8.50;;;1.90;;
73456;SDS011;61691;53.072;6.582;2023-06-26T08:48:31;10.55;;;2.03;;
73456;SDS011;61691;53.072;6.582;2023-06-26T08:51:09;10.85;;;2.28;;
73456;SDS011;61691;53.072;6.582;2023-06-26T08:56:17;12.02;;;2.40;;
73456;SDS011;61691;53.072;6.582;2023-06-26T08:58:47;10.50;;;2.33;;
73456;SDS011;61691;53.072;6.582;2023-06-26T09:01:15;13.07;;;2.35;;
73456;SDS011;61691;53.072;6.582;2023-06-26T09:03:43;12.25;;;2.10;;
73456;SDS011;61691;53.072;6.582;2023-06-26T09:06:10;11.25;;;2.20;;
73456;SDS011;61691;53.072;6.582;2023-06-26T09:08:37;12.10;;;2.38;;
73456;SDS011;61691;53.072;6.582;2023-06-26T09:11:04;9.85;;;2.22;;
73456;SDS011;61691;53.072;6.582;2023-06-26T09:13:30;10.73;;;2.30;;
73456;SDS011;61691;53.072;6.582;2023-06-26T09:15:57;12.27;;;2.55;;
73456;SDS011;61691;53.072;6.582;2023-06-26T09:18:25;11.05;;;2.22;;
73456;SDS011;61691;53.072;6.582;2023-06-26T09:20:52;9.70;;;2.30;;
73456;SDS011;61691;53.072;6.582;2023-06-26T09:23:21;14.25;;;2.45;;
73456;SDS011;61691;53.072;6.582;2023-06-26T09:25:48;10.13;;;2.17;;
73456;SDS011;61691;53.072;6.582;2023-06-26T09:28:14;10.88;;;2.30;;
73456;SDS011;61691;53.072;6.582;2023-06-26T09:30:41;10.20;;;2.22;;
73456;SDS011;61691;53.072;6.582;2023-06-26T09:33:15;9.20;;;1.95;;
73456;SDS011;61691;53.072;6.582;2023-06-26T09:35:47;10.27;;;2.05;;
73456;SDS011;61691;53.072;6.582;2023-06-26T09:38:14;10.18;;;2.13;;
73456;SDS011;61691;53.072;6.582;2023-06-26T09:40:44;12.23;;;2.22;;
73456;SDS011;61691;53.072;6.582;2023-06-26T09:43:12;10.50;;;2.05;;
73456;SDS011;61691;53.072;6.582;2023-06-26T09:45:40;13.48;;;2.65;;
73456;SDS011;61691;53.072;6.582;2023-06-26T09:48:07;14.05;;;2.60;;
73456;SDS011;61691;53.072;6.582;2023-06-26T09:50:35;10.95;;;2.35;;
73456;SDS011;61691;53.072;6.582;2023-06-26T09:53:07;14.48;;;2.88;;
73456;SDS011;61691;53.072;6.582;2023-06-26T09:55:38;13.13;;;2.80;;
73456;SDS011;61691;53.072;6.582;2023-06-26T09:58:06;12.95;;;2.40;;
73456;SDS011;61691;53.072;6.582;2023-06-26T10:00:34;11.30;;;2.15;;
73456;SDS011;61691;53.072;6.582;2023-06-26T10:03:01;12.15;;;2.83;;
73456;SDS011;61691;53.072;6.582;2023-06-26T10:05:29;12.45;;;2.58;;
73456;SDS011;61691;53.072;6.582;2023-06-26T10:07:56;14.40;;;2.78;;
73456;SDS011;61691;53.072;6.582;2023-06-26T10:10:23;11.82;;;2.50;;
73456;SDS011;61691;53.072;6.582;2023-06-26T10:12:54;12.07;;;2.60;;
73456;SDS011;61691;53.072;6.582;2023-06-26T10:15:24;13.32;;;2.65;;
73456;SDS011;61691;53.072;6.582;2023-06-26T10:17:53;13.85;;;2.80;;
73456;SDS011;61691;53.072;6.582;2023-06-26T10:20:22;15.40;;;2.88;;
73456;SDS011;61691;53.072;6.582;2023-06-26T10:22:52;13.82;;;2.55;;
73456;SDS011;61691;53.072;6.582;2023-06-26T10:25:22;13.20;;;2.40;;
73456;SDS011;61691;53.072;6.582;2023-06-26T10:27:53;12.43;;;2.78;;
73456;SDS011;61691;53.072;6.582;2023-06-26T10:30:24;14.80;;;2.35;;
73456;SDS011;61691;53.072;6.582;2023-06-26T10:32:54;11.25;;;2.42;;
73456;SDS011;61691;53.072;6.582;2023-06-26T10:35:22;13.88;;;2.95;;
73456;SDS011;61691;53.072;6.582;2023-06-26T10:37:50;12.02;;;2.13;;
73456;SDS011;61691;53.072;6.582;2023-06-26T10:41:00;11.52;;;2.25;;
73456;SDS011;61691;53.072;6.582;2023-06-26T10:43:12;11.10;;;2.17;;
73456;SDS011;61691;53.072;6.582;2023-06-26T10:45:46;13.00;;;2.47;;
73456;SDS011;61691;53.072;6.582;2023-06-26T10:48:20;13.93;;;2.75;;
73456;SDS011;61691;53.072;6.582;2023-06-26T10:50:49;14.23;;;2.45;;
73456;SDS011;61691;53.072;6.582;2023-06-26T10:55:49;12.82;;;2.42;;
73456;SDS011;61691;53.072;6.582;2023-06-26T10:58:29;16.05;;;2.20;;
73456;SDS011;61691;53.072;6.582;2023-06-26T11:03:43;14.18;;;2.50;;
73456;SDS011;61691;53.072;6.582;2023-06-26T11:06:11;13.87;;;2.60;;
73456;SDS011;61691;53.072;6.582;2023-06-26T11:11:13;13.30;;;2.47;;
73456;SDS011;61691;53.072;6.582;2023-06-26T11:13:40;10.43;;;2.00;;
73456;SDS011;61691;53.072;6.582;2023-06-26T11:16:08;13.77;;;2.10;;
73456;SDS011;61691;53.072;6.582;2023-06-26T11:18:35;17.05;;;2.50;;
73456;SDS011;61691;53.072;6.582;2023-06-26T11:21:05;14.45;;;2.47;;
73456;SDS011;61691;53.072;6.582;2023-06-26T11:23:37;14.65;;;2.30;;
73456;SDS011;61691;53.072;6.582;2023-06-26T11:26:18;9.82;;;2.15;;
73456;SDS011;61691;53.072;6.582;2023-06-26T11:28:50;11.85;;;2.20;;
73456;SDS011;61691;53.072;6.582;2023-06-26T11:31:27;13.32;;;2.28;;
73456;SDS011;61691;53.072;6.582;2023-06-26T11:33:57;11.48;;;2.10;;
73456;SDS011;61691;53.072;6.582;2023-06-26T11:36:26;12.80;;;2.20;;
73456;SDS011;61691;53.072;6.582;2023-06-26T11:38:56;11.80;;;2.05;;
73456;SDS011;61691;53.072;6.582;2023-06-26T11:41:27;13.15;;;2.67;;
73456;SDS011;61691;53.072;6.582;2023-06-26T11:43:55;11.23;;;1.90;;
73456;SDS011;61691;53.072;6.582;2023-06-26T11:46:30;16.67;;;1.90;;
73456;SDS011;61691;53.072;6.582;2023-06-26T11:48:56;12.45;;;2.08;;
73456;SDS011;61691;53.072;6.582;2023-06-26T11:51:24;13.07;;;1.95;;
73456;SDS011;61691;53.072;6.582;2023-06-26T11:53:53;12.38;;;1.92;;
73456;SDS011;61691;53.072;6.582;2023-06-26T11:56:20;12.30;;;1.75;;
73456;SDS011;61691;53.072;6.582;2023-06-26T11:58:57;12.15;;;2.05;;
73456;SDS011;61691;53.072;6.582;2023-06-26T12:01:37;11.15;;;1.75;;
73456;SDS011;61691;53.072;6.582;2023-06-26T12:04:07;11.23;;;1.80;;
73456;SDS011;61691;53.072;6.582;2023-06-26T12:06:35;15.43;;;2.22;;
73456;SDS011;61691;53.072;6.582;2023-06-26T12:09:08;15.68;;;1.95;;
73456;SDS011;61691;53.072;6.582;2023-06-26T12:11:41;9.30;;;1.80;;
73456;SDS011;61691;53.072;6.582;2023-06-26T12:14:09;12.52;;;1.80;;
73456;SDS011;61691;53.072;6.582;2023-06-26T12:16:37;11.25;;;1.77;;
73456;SDS011;61691;53.072;6.582;2023-06-26T12:19:07;9.02;;;1.70;;
73456;SDS011;61691;53.072;6.582;2023-06-26T12:24:04;9.90;;;1.70;;
73456;SDS011;61691;53.072;6.582;2023-06-26T12:26:33;14.20;;;1.98;;
73456;SDS011;61691;53.072;6.582;2023-06-26T12:31:33;10.38;;;1.88;;
73456;SDS011;61691;53.072;6.582;2023-06-26T12:34:00;11.80;;;1.95;;
73456;SDS011;61691;53.072;6.582;2023-06-26T12:36:27;12.77;;;2.40;;
73456;SDS011;61691;53.072;6.582;2023-06-26T12:38:54;11.65;;;2.00;;
73456;SDS011;61691;53.072;6.582;2023-06-26T12:41:24;11.55;;;2.28;;
73456;SDS011;61691;53.072;6.582;2023-06-26T12:43:55;10.30;;;1.80;;
73456;SDS011;61691;53.072;6.582;2023-06-26T12:46:35;9.25;;;1.75;;
73456;SDS011;61691;53.072;6.582;2023-06-26T12:49:02;14.43;;;2.33;;
73456;SDS011;61691;53.072;6.582;2023-06-26T12:51:37;16.10;;;2.17;;
73456;SDS011;61691;53.072;6.582;2023-06-26T12:54:04;14.25;;;2.00;;
73456;SDS011;61691;53.072;6.582;2023-06-26T12:56:31;13.98;;;2.30;;
73456;SDS011;61691;53.072;6.582;2023-06-26T12:58:58;14.80;;;2.10;;
73456;SDS011;61691;53.072;6.582;2023-06-26T13:01:24;11.27;;;2.22;;
73456;SDS011;61691;53.072;6.582;2023-06-26T13:03:51;13.07;;;2.28;;
73456;SDS011;61691;53.072;6.582;2023-06-26T13:06:18;17.85;;;2.40;;
73456;SDS011;61691;53.072;6.582;2023-06-26T13:08:45;10.13;;;1.83;;
73456;SDS011;61691;53.072;6.582;2023-06-26T13:11:12;15.10;;;2.13;;
73456;SDS011;61691;53.072;6.582;2023-06-26T13:13:38;12.00;;;2.08;;
73456;SDS011;61691;53.072;6.582;2023-06-26T13:16:05;12.82;;;2.00;;
73456;SDS011;61691;53.072;6.582;2023-06-26T13:18:32;14.20;;;2.28;;
73456;SDS011;61691;53.072;6.582;2023-06-26T13:20:59;11.63;;;1.90;;
73456;SDS011;61691;53.072;6.582;2023-06-26T13:23:25;12.90;;;1.95;;
73456;SDS011;61691;53.072;6.582;2023-06-26T13:25:53;12.27;;;2.53;;
73456;SDS011;61691;53.072;6.582;2023-06-26T13:28:20;11.43;;;1.70;;
73456;SDS011;61691;53.072;6.582;2023-06-26T13:30:47;11.30;;;2.03;;
73456;SDS011;61691;53.072;6.582;2023-06-26T13:33:16;12.95;;;2.25;;
73456;SDS011;61691;53.072;6.582;2023-06-26T13:35:42;12.30;;;1.90;;
73456;SDS011;61691;53.072;6.582;2023-06-26T13:38:09;9.75;;;2.17;;
73456;SDS011;61691;53.072;6.582;2023-06-26T13:40:36;15.05;;;1.80;;
73456;SDS011;61691;53.072;6.582;2023-06-26T13:43:03;11.30;;;1.85;;
73456;SDS011;61691;53.072;6.582;2023-06-26T13:45:30;11.63;;;2.10;;
73456;SDS011;61691;53.072;6.582;2023-06-26T13:47:57;16.52;;;2.28;;
73456;SDS011;61691;53.072;6.582;2023-06-26T13:50:24;12.18;;;1.80;;
73456;SDS011;61691;53.072;6.582;2023-06-26T13:52:50;10.00;;;2.03;;
73456;SDS011;61691;53.072;6.582;2023-06-26T13:55:17;15.57;;;2.08;;
73456;SDS011;61691;53.072;6.582;2023-06-26T13:57:44;16.00;;;2.40;;
73456;SDS011;61691;53.072;6.582;2023-06-26T14:00:11;10.90;;;1.98;;
73456;SDS011;61691;53.072;6.582;2023-06-26T14:02:38;13.95;;;2.67;;
73456;SDS011;61691;53.072;6.582;2023-06-26T14:05:05;13.35;;;2.30;;
73456;SDS011;61691;53.072;6.582;2023-06-26T14:07:32;11.55;;;2.53;;
73456;SDS011;61691;53.072;6.582;2023-06-26T14:09:59;10.80;;;1.88;;
73456;SDS011;61691;53.072;6.582;2023-06-26T14:12:26;11.93;;;2.25;;
73456;SDS011;61691;53.072;6.582;2023-06-26T14:14:53;9.65;;;1.90;;
73456;SDS011;61691;53.072;6.582;2023-06-26T14:17:20;11.55;;;1.80;;
73456;SDS011;61691;53.072;6.582;2023-06-26T14:19:50;14.43;;;2.65;;
73456;SDS011;61691;53.072;6.582;2023-06-26T14:22:18;12.20;;;1.88;;
73456;SDS011;61691;53.072;6.582;2023-06-26T14:24:45;12.55;;;2.28;;
73456;SDS011;61691;53.072;6.582;2023-06-26T14:27:11;11.13;;;1.70;;
73456;SDS011;61691;53.072;6.582;2023-06-26T14:29:38;8.98;;;1.90;;
73456;SDS011;61691;53.072;6.582;2023-06-26T14:32:05;12.50;;;2.20;;
73456;SDS011;61691;53.072;6.582;2023-06-26T14:34:32;10.23;;;1.85;;
73456;SDS011;61691;53.072;6.582;2023-06-26T14:36:59;9.25;;;1.73;;
73456;SDS011;61691;53.072;6.582;2023-06-26T14:39:26;10.68;;;1.90;;
73456;SDS011;61691;53.072;6.582;2023-06-26T14:41:54;10.25;;;1.65;;
73456;SDS011;61691;53.072;6.582;2023-06-26T14:44:21;8.00;;;1.55;;
73456;SDS011;61691;53.072;6.582;2023-06-26T14:46:48;11.02;;;1.80;;
73456;SDS011;61691;53.072;6.582;2023-06-26T14:49:15;10.57;;;2.15;;
73456;SDS011;61691;53.072;6.582;2023-06-26T14:51:41;11.38;;;1.73;;
73456;SDS011;61691;53.072;6.582;2023-06-26T14:54:08;14.30;;;2.03;;
73456;SDS011;61691;53.072;6.582;2023-06-26T14:56:35;12.27;;;1.77;;
73456;SDS011;61691;53.072;6.582;2023-06-26T14:59:02;11.18;;;1.73;;